Phaethon — SVAM2 — position and weather

sailwx.info

Track history (hours):
 
Tides and Currents Weather Stations Pressure Air Temp Water Temp Dewpoint Dewpoint Depression Visibility Wind Speed Wind Dir Waves Ship Positions

Phaethon

Last reported at 2018-Feb-23 05:45 UTC. Time now 2018-Feb-25 03:59 UTC.
Position N 35°58' W 005°37'.

Length 274 m; draft 15.2 m.

Type: Ship. MMSI: 240836000.

Date/timePositionNaut miles runAvg speedWind from/ knotsBaromVisibWave heightAir tempDewpointWater temp
2018-Feb-23 05:45N 35°58' W 005°37'311.8
2018-Feb-23 05:30N 35°59' W 005°34'611.1
2018-Feb-23 05:00N 36°00' W 005°28'510.5
2018-Feb-23 04:30N 36°02' W 005°21'611.0
2018-Feb-23 03:59N 36°03' W 005°15'612.3
2018-Feb-23 03:30N 36°05' W 005°07'  
2018-Feb-19 22:21N 36°34' E 013°52'712.1
2018-Feb-19 21:44N 36°30' E 014°00'312.1
2018-Feb-19 21:30N 36°29' E 014°03'612.1
2018-Feb-19 21:00N 36°26' E 014°10'612.4
2018-Feb-19 20:30N 36°22' E 014°16'712.6
2018-Feb-19 19:59N 36°19' E 014°23'612.6
2018-Feb-19 19:30N 36°16' E 014°30'612.4
2018-Feb-19 19:00N 36°13' E 014°37'612.3
2018-Feb-19 18:29N 36°10' E 014°44'612.3
2018-Feb-19 18:00N 36°06' E 014°48'711.5
2018-Feb-19 17:26N 35°60' E 014°52'2 2.8
2018-Feb-19 16:48N 35°58' E 014°53'0 0.0
2018-Feb-19 16:24N 35°58' E 014°53'0 0.0
2018-Feb-19 15:54N 35°58' E 014°53'0 0.0
2018-Feb-19 08:24N 35°58' E 014°53'0 0.1
2018-Feb-19 06:33N 35°59' E 014°53'0 0.0
2018-Feb-19 05:39N 35°59' E 014°53'0 0.0
2018-Feb-19 05:21N 35°59' E 014°53'0 0.0
2018-Feb-19 04:54N 35°59' E 014°53'0 0.0
2018-Feb-19 04:27N 35°59' E 014°53'0 0.0
2018-Feb-19 02:54N 35°59' E 014°53'0 0.0
2018-Feb-19 02:24N 35°59' E 014°53'0 0.0
2018-Feb-19 02:00N 35°59' E 014°53'0 0.0
2018-Feb-18 19:18N 35°59' E 014°53'0 0.1
2018-Feb-18 18:45N 35°59' E 014°53'0 0.0
2018-Feb-18 17:30N 35°59' E 014°53'0 0.0
2018-Feb-18 16:21N 35°59' E 014°53'0 0.0
2018-Feb-18 15:57N 35°59' E 014°53'0 0.1
2018-Feb-18 15:27N 35°59' E 014°53'0 0.0
2018-Feb-18 14:45N 35°59' E 014°53'0 0.0
2018-Feb-18 14:30N 35°59' E 014°53'0 0.0
2018-Feb-18 13:57N 35°59' E 014°53'0 0.0
2018-Feb-18 12:39N 35°59' E 014°53'0 0.0
2018-Feb-18 12:12N 35°59' E 014°53'0 0.0
2018-Feb-18 11:57N 35°59' E 014°53'0 0.0
2018-Feb-18 08:15N 35°59' E 014°53'0 0.0
2018-Feb-18 07:54N 35°59' E 014°53'0 0.0
2018-Feb-18 07:30N 35°59' E 014°53'0 0.0
2018-Feb-18 06:54N 35°59' E 014°53'0 0.0
2018-Feb-16 22:24N 35°58' E 014°53'0 0.0
2018-Feb-16 22:00N 35°58' E 014°53'0 0.0
2018-Feb-16 21:30N 35°58' E 014°53'0 0.0
2018-Feb-16 15:09N 35°58' E 014°53'0 0.0
2018-Feb-16 14:57N 35°58' E 014°53'0 0.0
2018-Feb-16 14:21N 35°58' E 014°53'0 0.0
2018-Feb-16 14:00N 35°58' E 014°53'0 0.0
2018-Feb-16 12:30N 35°58' E 014°53'0 0.0
2018-Feb-16 10:39N 35°58' E 014°53'0 0.0
2018-Feb-16 10:21N 35°58' E 014°53'0 0.0
2018-Feb-16 09:33N 35°58' E 014°53'0 0.1
2018-Feb-16 09:27N 35°58' E 014°53'0 0.1
2018-Feb-16 08:45N 35°58' E 014°53'0 0.0
2018-Feb-16 05:54N 35°58' E 014°53'0 0.0
2018-Feb-16 00:33N 35°58' E 014°53'0 0.2
2018-Feb-16 00:30N 35°58' E 014°53'0 0.0
2018-Feb-15 23:39N 35°58' E 014°53'0 0.1
2018-Feb-15 23:15N 35°58' E 014°53'0 0.0
2018-Feb-15 22:48N 35°58' E 014°53'17 0.4
2018-Feb-14 00:26N 36°15' E 014°49'4 8.8
2018-Feb-13 23:57N 36°16' E 014°44'4 8.6
2018-Feb-13 23:30N 36°18' E 014°40'1 2.4
2018-Feb-13 22:59N 36°17' E 014°39'2 4.4
2018-Feb-13 22:30N 36°15' E 014°40'2 4.3
2018-Feb-13 22:00N 36°14' E 014°42'2 4.1
2018-Feb-13 21:30N 36°12' E 014°43'2 4.1
2018-Feb-13 21:00N 36°10' E 014°45'2 4.2
2018-Feb-13 20:30N 36°09' E 014°46'2 4.4
2018-Feb-13 19:59N 36°07' E 014°47'4 4.7
2018-Feb-13 19:09N 36°03' E 014°50'1 4.0
2018-Feb-13 19:00N 36°03' E 014°51'2 4.3
2018-Feb-13 18:29N 36°01' E 014°52'2 4.0
2018-Feb-13 17:59N 35°59' E 014°52'1 0.6
2018-Feb-13 16:43N 35°58' E 014°52'0 0.1
2018-Feb-13 16:28N 35°58' E 014°52'0 0.0
2018-Feb-13 14:46N 35°58' E 014°52'0 0.0
2018-Feb-13 14:25N 35°58' E 014°52'0 0.0
2018-Feb-13 13:52N 35°58' E 014°52'0 0.1
2018-Feb-13 13:25N 35°58' E 014°52'0 0.0
2018-Feb-13 12:58N 35°58' E 014°52'0 0.0
2018-Feb-13 12:28N 35°58' E 014°52'0 0.1
2018-Feb-13 11:55N 35°58' E 014°52'0 0.0
2018-Feb-13 11:07N 35°58' E 014°52'0 0.2
2018-Feb-13 10:58N 35°58' E 014°52'0 0.1
2018-Feb-13 10:07N 35°58' E 014°52'0 0.3
2018-Feb-13 09:58N 35°58' E 014°52'0 0.0
2018-Feb-13 09:28N 35°58' E 014°52'0 0.0
2018-Feb-13 08:58N 35°58' E 014°52'0 0.0
2018-Feb-13 08:16N 35°58' E 014°52'0 0.1
2018-Feb-13 07:58N 35°58' E 014°52'0 0.0
2018-Feb-13 07:13N 35°58' E 014°52'0 0.1
2018-Feb-13 06:55N 35°58' E 014°52'0 0.1
2018-Feb-13 06:28N 35°58' E 014°52'0 0.0
2018-Feb-13 05:58N 35°58' E 014°52'  
Track history (hours):
 
Tides and Currents Weather Stations Pressure Air Temp Water Temp Dewpoint Dewpoint Depression Visibility Wind Speed Wind Dir Waves Ship Positions

Phaethon

Last reported at 2018-Feb-23 05:45 UTC. Time now 2018-Feb-25 03:59 UTC.
Position N 35°58' W 005°37'.

Length 274 m; draft 15.2 m.

Type: Ship. MMSI: 240836000.

Date/timePositionNaut miles runAvg speedWind from/ knotsBaromVisibWave heightAir tempDewpointWater temp
2018-Feb-23 05:45N 35°58' W 005°37'311.8
2018-Feb-23 05:30N 35°59' W 005°34'611.1
2018-Feb-23 05:00N 36°00' W 005°28'510.5
2018-Feb-23 04:30N 36°02' W 005°21'611.0
2018-Feb-23 03:59N 36°03' W 005°15'612.3
2018-Feb-23 03:30N 36°05' W 005°07'  
2018-Feb-19 22:21N 36°34' E 013°52'712.1
2018-Feb-19 21:44N 36°30' E 014°00'312.1
2018-Feb-19 21:30N 36°29' E 014°03'612.1
2018-Feb-19 21:00N 36°26' E 014°10'612.4
2018-Feb-19 20:30N 36°22' E 014°16'712.6
2018-Feb-19 19:59N 36°19' E 014°23'612.6
2018-Feb-19 19:30N 36°16' E 014°30'612.4
2018-Feb-19 19:00N 36°13' E 014°37'612.3
2018-Feb-19 18:29N 36°10' E 014°44'612.3
2018-Feb-19 18:00N 36°06' E 014°48'711.5
2018-Feb-19 17:26N 35°60' E 014°52'2 2.8
2018-Feb-19 16:48N 35°58' E 014°53'0 0.0
2018-Feb-19 16:24N 35°58' E 014°53'0 0.0
2018-Feb-19 15:54N 35°58' E 014°53'0 0.0
2018-Feb-19 08:24N 35°58' E 014°53'0 0.1
2018-Feb-19 06:33N 35°59' E 014°53'0 0.0
2018-Feb-19 05:39N 35°59' E 014°53'0 0.0
2018-Feb-19 05:21N 35°59' E 014°53'0 0.0
2018-Feb-19 04:54N 35°59' E 014°53'0 0.0
2018-Feb-19 04:27N 35°59' E 014°53'0 0.0
2018-Feb-19 02:54N 35°59' E 014°53'0 0.0
2018-Feb-19 02:24N 35°59' E 014°53'0 0.0
2018-Feb-19 02:00N 35°59' E 014°53'0 0.0
2018-Feb-18 19:18N 35°59' E 014°53'0 0.1
2018-Feb-18 18:45N 35°59' E 014°53'0 0.0
2018-Feb-18 17:30N 35°59' E 014°53'0 0.0
2018-Feb-18 16:21N 35°59' E 014°53'0 0.0
2018-Feb-18 15:57N 35°59' E 014°53'0 0.1
2018-Feb-18 15:27N 35°59' E 014°53'0 0.0
2018-Feb-18 14:45N 35°59' E 014°53'0 0.0
2018-Feb-18 14:30N 35°59' E 014°53'0 0.0
2018-Feb-18 13:57N 35°59' E 014°53'0 0.0
2018-Feb-18 12:39N 35°59' E 014°53'0 0.0
2018-Feb-18 12:12N 35°59' E 014°53'0 0.0
2018-Feb-18 11:57N 35°59' E 014°53'0 0.0
2018-Feb-18 08:15N 35°59' E 014°53'0 0.0
2018-Feb-18 07:54N 35°59' E 014°53'0 0.0
2018-Feb-18 07:30N 35°59' E 014°53'0 0.0
2018-Feb-18 06:54N 35°59' E 014°53'0 0.0
2018-Feb-16 22:24N 35°58' E 014°53'0 0.0
2018-Feb-16 22:00N 35°58' E 014°53'0 0.0
2018-Feb-16 21:30N 35°58' E 014°53'0 0.0
2018-Feb-16 15:09N 35°58' E 014°53'0 0.0
2018-Feb-16 14:57N 35°58' E 014°53'0 0.0
2018-Feb-16 14:21N 35°58' E 014°53'0 0.0
2018-Feb-16 14:00N 35°58' E 014°53'0 0.0
2018-Feb-16 12:30N 35°58' E 014°53'0 0.0
2018-Feb-16 10:39N 35°58' E 014°53'0 0.0
2018-Feb-16 10:21N 35°58' E 014°53'0 0.0
2018-Feb-16 09:33N 35°58' E 014°53'0 0.1
2018-Feb-16 09:27N 35°58' E 014°53'0 0.1
2018-Feb-16 08:45N 35°58' E 014°53'0 0.0
2018-Feb-16 05:54N 35°58' E 014°53'0 0.0
2018-Feb-16 00:33N 35°58' E 014°53'0 0.2
2018-Feb-16 00:30N 35°58' E 014°53'0 0.0
2018-Feb-15 23:39N 35°58' E 014°53'0 0.1
2018-Feb-15 23:15N 35°58' E 014°53'0 0.0
2018-Feb-15 22:48N 35°58' E 014°53'17 0.4
2018-Feb-14 00:26N 36°15' E 014°49'4 8.8
2018-Feb-13 23:57N 36°16' E 014°44'4 8.6
2018-Feb-13 23:30N 36°18' E 014°40'1 2.4
2018-Feb-13 22:59N 36°17' E 014°39'2 4.4
2018-Feb-13 22:30N 36°15' E 014°40'2 4.3
2018-Feb-13 22:00N 36°14' E 014°42'2 4.1
2018-Feb-13 21:30N 36°12' E 014°43'2 4.1
2018-Feb-13 21:00N 36°10' E 014°45'2 4.2
2018-Feb-13 20:30N 36°09' E 014°46'2 4.4
2018-Feb-13 19:59N 36°07' E 014°47'4 4.7
2018-Feb-13 19:09N 36°03' E 014°50'1 4.0
2018-Feb-13 19:00N 36°03' E 014°51'2 4.3
2018-Feb-13 18:29N 36°01' E 014°52'2 4.0
2018-Feb-13 17:59N 35°59' E 014°52'1 0.6
2018-Feb-13 16:43N 35°58' E 014°52'0 0.1
2018-Feb-13 16:28N 35°58' E 014°52'0 0.0
2018-Feb-13 14:46N 35°58' E 014°52'0 0.0
2018-Feb-13 14:25N 35°58' E 014°52'0 0.0
2018-Feb-13 13:52N 35°58' E 014°52'0 0.1
2018-Feb-13 13:25N 35°58' E 014°52'0 0.0
2018-Feb-13 12:58N 35°58' E 014°52'0 0.0
2018-Feb-13 12:28N 35°58' E 014°52'0 0.1
2018-Feb-13 11:55N 35°58' E 014°52'0 0.0
2018-Feb-13 11:07N 35°58' E 014°52'0 0.2
2018-Feb-13 10:58N 35°58' E 014°52'0 0.1
2018-Feb-13 10:07N 35°58' E 014°52'0 0.3
2018-Feb-13 09:58N 35°58' E 014°52'0 0.0
2018-Feb-13 09:28N 35°58' E 014°52'0 0.0
2018-Feb-13 08:58N 35°58' E 014°52'0 0.0
2018-Feb-13 08:16N 35°58' E 014°52'0 0.1
2018-Feb-13 07:58N 35°58' E 014°52'0 0.0
2018-Feb-13 07:13N 35°58' E 014°52'0 0.1
2018-Feb-13 06:55N 35°58' E 014°52'0 0.1
2018-Feb-13 06:28N 35°58' E 014°52'0 0.0
2018-Feb-13 05:58N 35°58' E 014°52'  

Dump ship's entire track history